createdAt,value
2018-12-30T00:00:18.611Z,6.64
2018-12-30T00:01:18.658Z,6.63
2018-12-30T00:02:18.669Z,6.63
2018-12-30T00:03:18.698Z,6.73
2018-12-30T00:04:18.730Z,6.75
2018-12-30T00:05:18.756Z,6.75
2018-12-30T00:06:18.786Z,6.72
2018-12-30T00:07:18.814Z,6.75
2018-12-30T00:08:18.844Z,6.75
2018-12-30T00:09:18.877Z,6.72
2018-12-30T00:10:18.902Z,6.83
2018-12-30T00:11:18.932Z,6.69
2018-12-30T00:12:18.964Z,6.75
2018-12-30T00:13:18.989Z,6.73
2018-12-30T00:14:19.018Z,6.73
2018-12-30T00:15:19.049Z,6.73
2018-12-30T00:16:19.078Z,6.83
2018-12-30T00:17:19.108Z,6.83
2018-12-30T00:18:19.136Z,6.83
2018-12-30T00:19:19.163Z,6.81
2018-12-30T00:20:19.194Z,6.86
2018-12-30T00:21:19.222Z,6.91
2018-12-30T00:22:19.256Z,6.89
2018-12-30T00:23:19.283Z,6.86
2018-12-30T00:24:19.309Z,6.96
2018-12-30T00:25:19.337Z,6.90
2018-12-30T00:26:19.366Z,6.91
2018-12-30T00:27:19.435Z,6.94
2018-12-30T00:28:19.425Z,6.86
2018-12-30T00:29:19.455Z,6.87
2018-12-30T00:30:19.484Z,6.86
2018-12-30T00:31:19.514Z,6.89
2018-12-30T00:32:19.543Z,6.86
2018-12-30T00:33:19.571Z,6.93
2018-12-30T00:34:19.601Z,7.00
2018-12-30T00:35:19.632Z,6.86
2018-12-30T00:36:19.659Z,6.97
2018-12-30T00:37:19.688Z,6.94
2018-12-30T00:38:19.718Z,6.91
2018-12-30T00:39:19.747Z,6.91
2018-12-30T00:40:19.777Z,6.93
2018-12-30T00:41:19.823Z,6.97
2018-12-30T00:42:19.837Z,7.04
2018-12-30T00:43:19.868Z,7.08
2018-12-30T00:44:19.893Z,7.08
2018-12-30T00:45:19.923Z,7.08
2018-12-30T00:46:19.951Z,6.99
2018-12-30T00:47:19.982Z,7.08
2018-12-30T00:48:20.010Z,7.05
2018-12-30T00:49:20.043Z,7.07
2018-12-30T00:50:20.071Z,7.09
2018-12-30T00:51:20.099Z,7.18
2018-12-30T00:52:20.180Z,7.09
2018-12-30T00:53:20.157Z,7.18
2018-12-30T00:54:20.186Z,7.18
2018-12-30T00:55:20.218Z,7.18
2018-12-30T00:56:20.246Z,7.23
2018-12-30T00:57:20.275Z,7.15
2018-12-30T00:58:20.305Z,7.18
2018-12-30T00:59:20.338Z,7.19
2018-12-30T01:00:20.363Z,7.15
2018-12-30T01:01:20.426Z,7.18
2018-12-30T01:02:20.423Z,7.23
2018-12-30T01:03:20.452Z,7.12
2018-12-30T01:04:20.482Z,7.09
2018-12-30T01:05:20.512Z,7.24
2018-12-30T01:06:20.541Z,7.19
2018-12-30T01:07:20.571Z,7.24
2018-12-30T01:08:20.600Z,7.26
2018-12-30T01:09:20.629Z,7.23
2018-12-30T01:10:20.658Z,7.19
2018-12-30T01:11:20.689Z,7.19
2018-12-30T01:12:20.720Z,7.27
2018-12-30T01:13:20.748Z,7.24
2018-12-30T01:14:20.778Z,7.23
2018-12-30T01:15:20.808Z,7.19
2018-12-30T01:16:20.836Z,7.19
2018-12-30T01:17:20.866Z,7.24
2018-12-30T01:18:20.896Z,7.23
2018-12-30T01:19:20.927Z,7.24
2018-12-30T01:20:20.956Z,7.21
2018-12-30T01:21:25.060Z,7.26
2018-12-30T01:22:21.015Z,7.26
2018-12-30T01:23:21.042Z,7.34
2018-12-30T01:24:21.072Z,7.33
2018-12-30T01:25:21.107Z,7.23
2018-12-30T01:26:21.132Z,7.37
2018-12-30T01:27:21.161Z,7.36
2018-12-30T01:28:21.191Z,7.39
2018-12-30T01:29:21.221Z,7.41
2018-12-30T01:30:21.250Z,7.36
2018-12-30T01:31:21.281Z,7.37
2018-12-30T01:32:21.310Z,7.33
2018-12-30T01:33:21.340Z,7.36
2018-12-30T01:34:21.370Z,7.39
2018-12-30T01:35:21.399Z,7.39
2018-12-30T01:36:21.429Z,7.41
2018-12-30T01:37:21.456Z,7.42
2018-12-30T01:38:21.485Z,7.42
2018-12-30T01:39:21.516Z,7.55
2018-12-30T01:40:21.546Z,7.57
2018-12-30T01:41:21.577Z,7.57
2018-12-30T01:42:21.607Z,7.44
2018-12-30T01:43:21.636Z,7.51
2018-12-30T01:44:21.666Z,7.55
2018-12-30T01:45:21.694Z,7.51
2018-12-30T01:46:21.723Z,7.57
2018-12-30T01:47:21.753Z,7.52
2018-12-30T01:48:21.786Z,7.48
2018-12-30T01:49:21.813Z,7.57
2018-12-30T01:50:21.843Z,7.54
2018-12-30T01:51:21.874Z,7.69
2018-12-30T01:52:21.904Z,7.67
2018-12-30T01:53:21.932Z,7.69
2018-12-30T01:54:21.962Z,7.73
2018-12-30T01:55:21.993Z,7.67
2018-12-30T01:56:22.022Z,7.58
2018-12-30T01:57:22.054Z,7.71
2018-12-30T01:58:22.083Z,7.67
2018-12-30T01:59:22.111Z,7.70
2018-12-30T02:00:22.142Z,7.70
2018-12-30T02:01:22.171Z,7.73
2018-12-30T02:02:22.203Z,7.71
2018-12-30T02:03:22.232Z,7.74
2018-12-30T02:04:22.261Z,7.73
2018-12-30T02:05:22.292Z,7.74
2018-12-30T02:06:22.320Z,7.71
2018-12-30T02:07:22.350Z,7.82
2018-12-30T02:08:22.383Z,7.73
2018-12-30T02:09:22.411Z,7.77
2018-12-30T02:10:22.440Z,7.73
2018-12-30T02:11:22.471Z,7.76
2018-12-30T02:12:22.500Z,7.81
2018-12-30T02:13:22.529Z,7.76
2018-12-30T02:14:22.559Z,7.81
2018-12-30T02:15:22.688Z,7.74
2018-12-30T02:16:22.621Z,7.73
2018-12-30T02:17:22.650Z,7.77
2018-12-30T02:18:22.680Z,7.76
2018-12-30T02:19:22.716Z,7.82
2018-12-30T02:20:22.741Z,7.79
2018-12-30T02:21:22.770Z,7.82
2018-12-30T02:22:22.811Z,7.81
2018-12-30T02:25:04.066Z,7.81
2018-12-30T02:26:03.578Z,7.76
2018-12-30T02:28:05.584Z,7.77
2018-12-30T02:29:05.610Z,7.82
2018-12-30T02:31:07.650Z,7.77
2018-12-30T02:32:07.646Z,7.85
2018-12-30T02:34:09.657Z,7.94
2018-12-30T02:35:09.683Z,7.88
2018-12-30T02:37:11.690Z,7.92
2018-12-30T02:38:11.717Z,7.86
2018-12-30T02:40:13.729Z,7.86
2018-12-30T02:41:13.752Z,7.88
2018-12-30T02:43:05.705Z,7.99
2018-12-30T02:44:05.714Z,7.86
2018-12-30T02:46:07.721Z,8.02
2018-12-30T02:47:07.749Z,7.94
2018-12-30T02:49:09.758Z,8.06
2018-12-30T02:50:09.785Z,8.03
2018-12-30T02:52:11.807Z,8.04
2018-12-30T02:53:11.816Z,8.06
2018-12-30T02:55:13.826Z,8.07
2018-12-30T02:56:13.853Z,8.06
2018-12-30T02:58:15.878Z,8.04
2018-12-30T02:59:15.885Z,8.09
2018-12-30T03:01:17.896Z,8.09
2018-12-30T03:02:17.931Z,8.12
2018-12-30T03:04:19.931Z,8.07
2018-12-30T03:05:19.963Z,8.10
2018-12-30T03:07:22.091Z,8.14
2018-12-30T03:08:21.997Z,8.24
2018-12-30T03:10:24.007Z,8.18
2018-12-30T03:11:24.061Z,8.18
2018-12-30T03:13:16.050Z,8.27
2018-12-30T03:14:15.996Z,8.25
2018-12-30T03:16:18.003Z,8.29
2018-12-30T03:17:18.032Z,8.25
2018-12-30T03:19:20.037Z,8.29
2018-12-30T03:20:20.067Z,8.24
2018-12-30T03:22:22.073Z,8.37
2018-12-30T03:23:22.101Z,8.40
2018-12-30T03:25:24.125Z,8.39
2018-12-30T03:26:24.133Z,8.40
2018-12-30T03:28:26.143Z,8.46
2018-12-30T03:29:26.169Z,8.45
2018-12-30T03:31:28.197Z,8.42
2018-12-30T03:32:28.425Z,8.47
2018-12-30T03:34:30.245Z,8.49
2018-12-30T03:35:30.242Z,8.45
2018-12-30T03:37:32.252Z,8.43
2018-12-30T03:38:32.274Z,8.45
2018-12-30T03:40:34.398Z,8.46
2018-12-30T03:41:34.311Z,8.47
2018-12-30T03:43:26.248Z,8.55
2018-12-30T03:44:26.271Z,8.61
2018-12-30T03:46:28.919Z,8.71
2018-12-30T03:47:28.708Z,8.60
2018-12-30T03:49:30.519Z,8.63
2018-12-30T03:50:30.546Z,8.60
2018-12-30T03:52:32.574Z,8.68
2018-12-30T03:53:32.584Z,8.61
2018-12-30T03:55:34.594Z,8.57
2018-12-30T03:56:34.622Z,8.58
2018-12-30T03:58:36.657Z,8.70
2018-12-30T03:59:36.662Z,8.60
2018-12-30T04:01:38.671Z,8.71
2018-12-30T04:02:38.701Z,8.68
2018-12-30T04:04:40.705Z,8.83
2018-12-30T04:05:40.733Z,8.78
2018-12-30T04:07:42.761Z,8.78
2018-12-30T04:08:42.767Z,8.76
2018-12-30T04:10:44.777Z,8.91
2018-12-30T04:11:44.802Z,8.79
2018-12-30T04:13:36.757Z,8.86
2018-12-30T04:14:36.765Z,8.89
2018-12-30T04:16:38.775Z,8.89
2018-12-30T04:17:38.805Z,8.86
2018-12-30T04:19:40.811Z,8.86
2018-12-30T04:20:40.839Z,8.89
2018-12-30T04:22:42.849Z,8.89
2018-12-30T04:23:42.879Z,8.83
2018-12-30T04:25:44.905Z,8.93
2018-12-30T04:26:44.923Z,8.91
2018-12-30T04:28:46.924Z,9.00
2018-12-30T04:29:46.952Z,9.00
2018-12-30T04:31:48.963Z,9.00
2018-12-30T04:32:48.989Z,9.06
2018-12-30T04:34:51.038Z,8.94
2018-12-30T04:35:51.026Z,8.96
2018-12-30T04:37:53.036Z,8.98
2018-12-30T04:38:53.062Z,9.08
2018-12-30T04:40:55.785Z,9.10
2018-12-30T04:41:55.293Z,9.03
2018-12-30T04:43:47.232Z,9.16
2018-12-30T04:44:47.261Z,9.06
2018-12-30T04:46:49.273Z,9.13
2018-12-30T04:47:49.301Z,9.04
2018-12-30T04:49:51.319Z,9.06
2018-12-30T04:50:51.351Z,9.13
2018-12-30T04:52:53.374Z,9.06
2018-12-30T04:53:53.384Z,9.13
2018-12-30T04:55:55.389Z,9.12
2018-12-30T04:56:55.418Z,9.10
2018-12-30T04:58:57.427Z,9.15
2018-12-30T04:59:57.454Z,9.17
2018-12-30T05:01:59.482Z,9.17
2018-12-30T05:02:59.494Z,9.17
2018-12-30T05:05:01.501Z,9.13
2018-12-30T05:06:01.530Z,9.17
2018-12-30T05:08:04.037Z,9.16
2018-12-30T05:09:03.565Z,9.15
2018-12-30T05:11:05.662Z,9.16
2018-12-30T05:12:05.600Z,9.19
2018-12-30T05:14:07.617Z,9.15
2018-12-30T05:15:07.638Z,9.19
2018-12-30T05:17:09.651Z,9.20
2018-12-30T05:18:09.678Z,9.23
2018-12-30T05:20:11.707Z,9.22
2018-12-30T05:21:11.717Z,9.22
2018-12-30T05:23:03.656Z,9.15
2018-12-30T05:24:03.680Z,9.22
2018-12-30T05:26:05.711Z,9.22
2018-12-30T05:27:05.717Z,9.17
2018-12-30T05:29:07.729Z,9.19
2018-12-30T05:30:07.757Z,9.06
2018-12-30T05:32:09.766Z,9.10
2018-12-30T05:33:09.793Z,9.08
2018-12-30T05:35:11.803Z,9.04
2018-12-30T05:36:11.829Z,9.10
2018-12-30T05:38:13.852Z,9.04
2018-12-30T05:39:13.864Z,9.10
2018-12-30T05:41:15.878Z,9.01
2018-12-30T05:42:15.909Z,8.97
2018-12-30T05:44:17.911Z,8.97
2018-12-30T05:45:17.961Z,8.98
2018-12-30T05:47:19.966Z,8.96
2018-12-30T05:48:19.975Z,8.97
2018-12-30T05:50:21.987Z,8.91
2018-12-30T05:51:22.014Z,8.88
2018-12-30T05:53:14.016Z,8.91
2018-12-30T05:54:13.989Z,8.85
2018-12-30T05:56:15.988Z,8.89
2018-12-30T05:57:16.016Z,8.80
2018-12-30T05:59:18.027Z,8.85
2018-12-30T06:00:18.056Z,8.91
2018-12-30T06:02:20.064Z,8.79
2018-12-30T06:03:20.092Z,8.83
2018-12-30T06:05:22.125Z,8.89
2018-12-30T06:06:22.134Z,8.88
2018-12-30T06:08:24.146Z,8.88
2018-12-30T06:09:24.171Z,8.83
2018-12-30T06:11:26.184Z,8.79
2018-12-30T06:12:26.207Z,8.78
2018-12-30T06:14:28.218Z,8.78
2018-12-30T06:15:28.246Z,8.86
2018-12-30T06:17:30.256Z,8.76
2018-12-30T06:18:30.280Z,8.78
2018-12-30T06:20:22.444Z,8.73
2018-12-30T06:21:22.442Z,8.79
2018-12-30T06:23:14.379Z,8.73
2018-12-30T06:24:14.404Z,8.78
2018-12-30T06:26:16.415Z,8.79
2018-12-30T06:27:16.442Z,8.75
2018-12-30T06:29:18.450Z,8.75
2018-12-30T06:30:18.478Z,8.75
2018-12-30T06:32:20.506Z,8.76
2018-12-30T06:33:20.514Z,8.78
2018-12-30T06:35:22.524Z,8.76
2018-12-30T06:36:22.551Z,8.79
2018-12-30T06:38:24.581Z,8.76
2018-12-30T06:39:24.587Z,8.75
2018-12-30T06:41:26.619Z,8.80
2018-12-30T06:42:26.626Z,8.75
2018-12-30T06:44:28.635Z,8.80
2018-12-30T06:45:28.663Z,8.76
2018-12-30T06:47:31.684Z,8.71
2018-12-30T06:48:31.711Z,8.61
2018-12-30T06:50:33.741Z,8.46
2018-12-30T06:51:33.749Z,8.54
2018-12-30T06:53:25.719Z,8.47
2018-12-30T06:54:25.711Z,8.42
2018-12-30T06:56:27.723Z,8.46
2018-12-30T06:57:27.750Z,8.43
2018-12-30T06:59:29.787Z,8.37
2018-12-30T07:00:29.785Z,8.40
2018-12-30T07:02:31.794Z,8.29
2018-12-30T07:03:31.820Z,8.25
2018-12-30T07:05:23.965Z,8.18
2018-12-30T07:06:23.978Z,8.14
2018-12-30T07:08:25.986Z,8.22
2018-12-30T07:09:26.014Z,8.14
2018-12-30T07:11:28.023Z,8.18
2018-12-30T07:12:28.050Z,8.21
2018-12-30T07:14:30.065Z,8.21
2018-12-30T07:15:30.091Z,8.06
2018-12-30T07:17:32.101Z,8.04
2018-12-30T07:18:32.126Z,8.04
2018-12-30T07:20:34.173Z,8.06
2018-12-30T07:21:34.161Z,8.06
2018-12-30T07:23:26.098Z,8.07
2018-12-30T07:24:26.123Z,8.04
2018-12-30T07:26:28.134Z,8.00
2018-12-30T07:27:28.157Z,8.07
2018-12-30T07:29:30.166Z,8.06
2018-12-30T07:30:30.195Z,7.89
2018-12-30T07:32:32.222Z,7.91
2018-12-30T07:33:32.230Z,7.86
2018-12-30T07:35:34.240Z,7.86
2018-12-30T07:36:34.268Z,7.84
2018-12-30T07:38:36.276Z,7.77
2018-12-30T07:39:36.302Z,7.76
2018-12-30T07:41:38.313Z,7.81
2018-12-30T07:42:38.338Z,7.79
2018-12-30T07:44:40.419Z,7.73
2018-12-30T07:45:40.374Z,7.71
2018-12-30T07:47:42.378Z,7.67
2018-12-30T07:48:42.406Z,7.67
2018-12-30T07:50:44.415Z,7.57
2018-12-30T07:51:44.443Z,7.52
2018-12-30T07:53:36.379Z,7.54
2018-12-30T07:54:36.408Z,7.50
2018-12-30T07:56:38.411Z,7.54
2018-12-30T07:57:38.437Z,7.48
2018-12-30T07:59:40.463Z,7.51
2018-12-30T08:00:40.472Z,7.54
2018-12-30T08:02:42.482Z,7.54
2018-12-30T08:03:42.510Z,7.57
2018-12-30T08:05:44.520Z,7.55
2018-12-30T08:06:44.547Z,7.54
2018-12-30T08:08:46.565Z,7.55
2018-12-30T08:09:46.591Z,7.47
2018-12-30T08:11:48.601Z,7.57
2018-12-30T08:12:48.627Z,7.54
2018-12-30T08:14:50.645Z,7.55
2018-12-30T08:15:50.671Z,7.54
2018-12-30T08:17:52.699Z,7.58
2018-12-30T08:18:52.705Z,7.54
2018-12-30T08:20:54.717Z,7.57
2018-12-30T08:21:54.740Z,7.60
2018-12-30T08:23:46.682Z,7.54
2018-12-30T08:24:46.706Z,7.54
2018-12-30T08:26:48.713Z,7.52
2018-12-30T08:27:48.754Z,7.55
2018-12-30T08:29:50.750Z,7.48
2018-12-30T08:30:50.777Z,7.57
2018-12-30T08:32:52.789Z,7.54
2018-12-30T08:33:52.813Z,7.44
2018-12-30T08:35:54.821Z,7.48
2018-12-30T08:36:54.849Z,7.54
2018-12-30T08:38:56.861Z,7.54
2018-12-30T08:39:56.890Z,7.51
2018-12-30T08:41:58.897Z,7.57
2018-12-30T08:42:58.926Z,7.58
2018-12-30T08:45:00.955Z,7.69
2018-12-30T08:46:00.962Z,7.62
2018-12-30T08:48:02.974Z,7.66
2018-12-30T08:49:03.000Z,7.60
2018-12-30T08:51:05.021Z,7.69
2018-12-30T08:52:05.044Z,7.62
2018-12-30T08:54:07.056Z,7.58
2018-12-30T08:55:07.080Z,7.66
2018-12-30T08:57:09.242Z,7.58
2018-12-30T08:58:09.114Z,7.54
2018-12-30T09:00:11.223Z,7.57
2018-12-30T09:01:11.249Z,7.54
2018-12-30T09:03:03.254Z,7.62
2018-12-30T09:04:03.279Z,7.48
2018-12-30T09:06:05.426Z,7.62
2018-12-30T09:07:05.451Z,7.67
2018-12-30T09:09:07.593Z,7.69
2018-12-30T09:10:07.619Z,7.69
2018-12-30T09:12:09.763Z,7.60
2018-12-30T09:13:09.788Z,7.69
2018-12-30T09:15:11.932Z,7.60
2018-12-30T09:16:11.961Z,7.73
2018-12-30T09:18:14.215Z,7.71
2018-12-30T09:19:14.133Z,7.63
2018-12-30T09:21:16.297Z,7.67
2018-12-30T09:22:16.307Z,7.71
2018-12-30T09:24:18.825Z,7.57
2018-12-30T09:25:18.473Z,7.60
2018-12-30T09:27:20.618Z,7.55
2018-12-30T09:28:20.643Z,7.63
2018-12-30T09:30:22.804Z,7.55
2018-12-30T09:31:22.812Z,7.69
2018-12-30T09:33:14.820Z,7.69
2018-12-30T09:34:14.847Z,7.69
2018-12-30T09:36:16.990Z,7.63
2018-12-30T09:37:17.015Z,7.62
2018-12-30T09:39:19.162Z,7.76
2018-12-30T09:40:19.189Z,7.88
2018-12-30T09:42:21.331Z,7.89
2018-12-30T09:43:21.355Z,8.00
2018-12-30T09:45:23.503Z,8.02
2018-12-30T09:46:23.529Z,8.06
2018-12-30T09:48:33.598Z,8.06
2018-12-30T09:49:25.802Z,8.09
2018-12-30T09:51:27.968Z,8.18
2018-12-30T09:52:27.973Z,8.24
2018-12-30T09:54:30.115Z,8.18
2018-12-30T09:55:30.141Z,8.25
2018-12-30T09:57:32.640Z,8.18
2018-12-30T09:58:32.318Z,8.34
2018-12-30T10:00:34.456Z,8.27
2018-12-30T10:01:34.481Z,8.29
2018-12-30T10:03:26.488Z,8.27
2018-12-30T10:04:26.515Z,8.28
2018-12-30T10:06:28.662Z,8.25
2018-12-30T10:07:28.686Z,8.29
2018-12-30T10:09:30.830Z,8.36
2018-12-30T10:10:30.857Z,8.42
2018-12-30T10:12:33.041Z,8.46
2018-12-30T10:13:33.041Z,8.47
2018-12-30T10:15:35.172Z,8.40
2018-12-30T10:16:35.198Z,8.37
2018-12-30T10:18:37.342Z,8.34
2018-12-30T10:19:37.371Z,8.39
2018-12-30T10:21:39.512Z,8.40
2018-12-30T10:22:39.538Z,8.42
2018-12-30T10:24:41.736Z,8.40
2018-12-30T10:25:41.715Z,8.45
2018-12-30T10:27:43.856Z,8.45
2018-12-30T10:28:43.883Z,8.47
2018-12-30T10:30:46.024Z,8.42
2018-12-30T10:31:46.051Z,8.52
2018-12-30T10:33:38.057Z,8.42
2018-12-30T10:34:38.087Z,8.55
2018-12-30T10:36:40.227Z,8.58
2018-12-30T10:37:40.253Z,8.71
2018-12-30T10:39:42.399Z,8.79
2018-12-30T10:40:42.425Z,8.88
2018-12-30T10:42:44.572Z,8.91
2018-12-30T10:43:44.595Z,8.91
2018-12-30T10:45:46.776Z,8.88
2018-12-30T10:46:46.765Z,8.97
2018-12-30T10:48:48.911Z,8.97
2018-12-30T10:49:48.935Z,8.93
2018-12-30T10:51:51.143Z,8.97
2018-12-30T10:52:51.107Z,8.96
2018-12-30T10:54:53.253Z,8.96
2018-12-30T10:55:53.281Z,8.96
2018-12-30T10:57:55.425Z,9.03
2018-12-30T10:58:55.451Z,9.06
2018-12-30T11:00:57.595Z,9.03
2018-12-30T11:01:57.622Z,8.98
2018-12-30T11:03:49.627Z,9.03
2018-12-30T11:04:49.658Z,9.04
2018-12-30T11:06:51.801Z,9.06
2018-12-30T11:07:51.830Z,9.10
2018-12-30T11:09:53.970Z,8.97
2018-12-30T11:10:53.996Z,9.00
2018-12-30T11:12:56.139Z,8.98
2018-12-30T11:13:56.167Z,9.00
2018-12-30T11:15:58.311Z,8.98
2018-12-30T11:16:58.340Z,8.89
2018-12-30T11:19:00.482Z,8.97
2018-12-30T11:20:00.605Z,8.98
2018-12-30T11:22:02.651Z,8.97
2018-12-30T11:23:02.679Z,8.83
2018-12-30T11:25:04.843Z,8.94
2018-12-30T11:26:04.852Z,8.89
2018-12-30T11:28:06.991Z,8.98
2018-12-30T11:29:07.020Z,8.98
2018-12-30T11:31:09.162Z,8.93
2018-12-30T11:32:09.189Z,8.96
2018-12-30T11:34:11.333Z,8.86
2018-12-30T11:35:11.360Z,8.96
2018-12-30T11:37:13.502Z,8.89
2018-12-30T11:38:13.528Z,8.88
2018-12-30T11:40:15.821Z,8.88
2018-12-30T11:41:15.700Z,8.88
2018-12-30T11:43:07.705Z,8.89
2018-12-30T11:44:07.731Z,8.97
2018-12-30T11:46:09.989Z,8.98
2018-12-30T11:47:09.901Z,8.98
2018-12-30T11:49:12.064Z,9.00
2018-12-30T11:50:12.090Z,8.93
2018-12-30T11:52:14.247Z,8.96
2018-12-30T11:53:14.247Z,8.96
2018-12-30T11:55:16.391Z,8.94
2018-12-30T11:56:16.416Z,8.96
2018-12-30T11:58:18.559Z,8.93
2018-12-30T11:59:18.586Z,8.96
2018-12-30T12:01:20.732Z,8.97
2018-12-30T12:02:24.179Z,8.96
2018-12-30T12:04:22.901Z,8.88
2018-12-30T12:05:22.928Z,8.96
2018-12-30T12:07:25.088Z,9.03
2018-12-30T12:08:25.096Z,8.93
2018-12-30T12:10:27.240Z,9.06
2018-12-30T12:11:27.268Z,9.06
2018-12-30T12:13:19.273Z,9.12
2018-12-30T12:14:19.301Z,9.16
2018-12-30T12:16:21.784Z,9.10
2018-12-30T12:17:21.469Z,9.13
2018-12-30T12:19:23.618Z,9.24
2018-12-30T12:20:23.645Z,9.24
2018-12-30T12:22:25.784Z,9.22
2018-12-30T12:23:25.813Z,9.27
2018-12-30T12:25:28.013Z,9.31
2018-12-30T12:26:27.983Z,9.37
2018-12-30T12:27:28.015Z,9.32
2018-12-30T12:28:28.045Z,9.24
2018-12-30T12:29:28.079Z,9.24
2018-12-30T12:30:28.106Z,9.23
2018-12-30T12:31:28.139Z,9.16
2018-12-30T12:32:28.169Z,9.12
2018-12-30T12:33:28.201Z,9.15
2018-12-30T12:34:28.241Z,9.22
2018-12-30T12:35:28.263Z,9.22
2018-12-30T12:36:28.345Z,9.27
2018-12-30T12:37:28.325Z,9.24
2018-12-30T12:38:28.358Z,9.26
2018-12-30T12:39:28.389Z,9.20
2018-12-30T12:40:28.419Z,9.15
2018-12-30T12:41:28.453Z,9.23
2018-12-30T12:42:28.482Z,9.23
2018-12-30T12:43:28.512Z,9.26
2018-12-30T12:44:28.543Z,9.19
2018-12-30T12:45:28.575Z,9.31
2018-12-30T12:46:28.609Z,9.31
2018-12-30T12:47:28.637Z,9.27
2018-12-30T12:48:28.672Z,9.31
2018-12-30T12:49:28.699Z,9.30
2018-12-30T12:50:28.729Z,9.30
2018-12-30T12:51:28.761Z,9.27
2018-12-30T12:52:28.792Z,9.15
2018-12-30T12:53:28.824Z,9.15
2018-12-30T12:54:32.247Z,9.13
2018-12-30T12:55:28.964Z,9.17
2018-12-30T12:56:28.919Z,9.13
2018-12-30T12:57:28.947Z,9.16
2018-12-30T12:58:28.979Z,9.19
2018-12-30T12:59:29.009Z,9.16
2018-12-30T13:00:29.042Z,9.15
2018-12-30T13:01:29.073Z,9.15
2018-12-30T13:02:29.103Z,9.22
2018-12-30T13:03:29.139Z,9.15
2018-12-30T13:04:29.166Z,9.15
2018-12-30T13:05:29.197Z,9.17
2018-12-30T13:06:29.269Z,9.15
2018-12-30T13:07:29.260Z,9.12
2018-12-30T13:08:29.290Z,9.16
2018-12-30T13:09:29.323Z,9.12
2018-12-30T13:10:29.353Z,9.17
2018-12-30T13:11:29.385Z,9.19
2018-12-30T13:12:29.415Z,9.22
2018-12-30T13:13:29.447Z,9.12
2018-12-30T13:14:29.477Z,9.17
2018-12-30T13:15:29.508Z,9.17
2018-12-30T13:16:29.541Z,9.12
2018-12-30T13:17:29.572Z,9.15
2018-12-30T13:18:29.602Z,9.16
2018-12-30T13:19:29.635Z,9.24
2018-12-30T13:20:29.666Z,9.22
2018-12-30T13:21:29.696Z,9.22
2018-12-30T13:22:29.727Z,9.15
2018-12-30T13:23:29.758Z,9.32
2018-12-30T13:24:29.790Z,9.22
2018-12-30T13:25:29.821Z,9.16
2018-12-30T13:26:29.853Z,9.17
2018-12-30T13:27:29.884Z,9.23
2018-12-30T13:28:29.916Z,9.26
2018-12-30T13:29:29.945Z,9.17
2018-12-30T13:30:29.985Z,9.17
2018-12-30T13:31:30.010Z,9.20
2018-12-30T13:32:30.039Z,9.20
2018-12-30T13:33:30.071Z,9.24
2018-12-30T13:34:30.100Z,9.27
2018-12-30T13:35:30.133Z,9.24
2018-12-30T13:36:30.164Z,9.27
2018-12-30T13:37:30.196Z,9.26
2018-12-30T13:38:30.225Z,9.27
2018-12-30T13:39:30.256Z,9.24
2018-12-30T13:40:30.289Z,9.32
2018-12-30T13:41:30.321Z,9.40
2018-12-30T13:42:30.350Z,9.37
2018-12-30T13:43:30.381Z,9.38
2018-12-30T13:44:30.412Z,9.41
2018-12-30T13:45:32.165Z,9.42
2018-12-30T13:46:30.475Z,9.40
2018-12-30T13:47:30.506Z,9.38
2018-12-30T13:48:30.538Z,9.40
2018-12-30T13:49:30.573Z,9.38
2018-12-30T13:50:30.605Z,9.40
2018-12-30T13:51:30.631Z,9.42
2018-12-30T13:52:30.664Z,9.40
2018-12-30T13:53:30.695Z,9.44
2018-12-30T13:54:30.725Z,9.44
2018-12-30T13:55:30.756Z,9.40
2018-12-30T13:56:30.790Z,9.49
2018-12-30T13:57:30.820Z,9.38
2018-12-30T13:58:30.850Z,9.50
2018-12-30T13:59:30.885Z,9.52
2018-12-30T14:00:30.914Z,9.50
2018-12-30T14:01:30.946Z,9.52
2018-12-30T14:02:30.976Z,9.52
2018-12-30T14:03:31.007Z,9.67
2018-12-30T14:04:31.038Z,9.70
2018-12-30T14:05:31.069Z,9.71
2018-12-30T14:06:31.101Z,9.60
2018-12-30T14:07:31.132Z,9.55
2018-12-30T14:08:31.164Z,9.59
2018-12-30T14:09:31.199Z,9.58
2018-12-30T14:10:31.227Z,9.49
2018-12-30T14:11:31.259Z,9.49
2018-12-30T14:12:31.291Z,9.50
2018-12-30T14:13:31.322Z,9.48
2018-12-30T14:14:31.353Z,9.40
2018-12-30T14:15:31.386Z,9.40
2018-12-30T14:16:31.416Z,9.42
2018-12-30T14:17:31.450Z,9.38
2018-12-30T14:18:31.480Z,9.44
2018-12-30T14:19:31.511Z,9.35
2018-12-30T14:20:31.542Z,9.35
2018-12-30T14:21:31.573Z,9.35
2018-12-30T14:22:31.603Z,9.35
2018-12-30T14:23:31.636Z,9.34
2018-12-30T14:24:31.692Z,9.44
2018-12-30T14:25:31.699Z,9.41
2018-12-30T14:26:31.743Z,9.52
2018-12-30T14:27:31.761Z,9.53
2018-12-30T14:28:31.792Z,9.41
2018-12-30T14:29:31.824Z,9.50
2018-12-30T14:30:31.854Z,9.50
2018-12-30T14:31:31.886Z,9.52
2018-12-30T14:32:31.918Z,9.55
2018-12-30T14:33:31.948Z,9.41
2018-12-30T14:34:31.979Z,9.50
2018-12-30T14:35:32.010Z,9.38
2018-12-30T14:36:32.043Z,9.40
2018-12-30T14:37:32.074Z,9.40
2018-12-30T14:38:32.105Z,9.44
2018-12-30T14:39:32.140Z,9.38
2018-12-30T14:40:32.172Z,9.34
2018-12-30T14:41:32.199Z,9.38
2018-12-30T14:42:32.229Z,9.24
2018-12-30T14:43:32.262Z,9.31
2018-12-30T14:44:32.293Z,9.30
2018-12-30T14:45:32.332Z,9.22
2018-12-30T14:46:34.764Z,9.15
2018-12-30T14:47:32.386Z,9.20
2018-12-30T14:48:32.420Z,9.13
2018-12-30T14:49:32.448Z,9.16
2018-12-30T14:50:32.480Z,9.12
2018-12-30T14:51:32.515Z,9.17
2018-12-30T14:52:32.543Z,9.17
2018-12-30T14:53:32.575Z,9.16
2018-12-30T14:54:32.604Z,9.20
2018-12-30T14:55:32.639Z,9.13
2018-12-30T14:56:32.668Z,9.15
2018-12-30T14:57:32.700Z,9.13
2018-12-30T14:58:32.730Z,9.16
2018-12-30T14:59:32.762Z,9.17
2018-12-30T15:00:32.817Z,9.15
2018-12-30T15:01:32.825Z,9.19
2018-12-30T15:02:32.854Z,9.16
2018-12-30T15:03:32.885Z,9.06
2018-12-30T15:04:32.917Z,9.19
2018-12-30T15:05:32.949Z,9.17
2018-12-30T15:06:32.983Z,9.17
2018-12-30T15:07:33.018Z,9.12
2018-12-30T15:08:33.043Z,9.15
2018-12-30T15:09:35.915Z,9.16
2018-12-30T15:10:33.106Z,9.13
2018-12-30T15:11:33.135Z,9.15
2018-12-30T15:12:33.171Z,9.16
2018-12-30T15:13:33.201Z,9.16
2018-12-30T15:14:33.231Z,9.15
2018-12-30T15:15:33.261Z,9.20
2018-12-30T15:16:33.293Z,9.15
2018-12-30T15:17:33.392Z,9.15
2018-12-30T15:18:33.356Z,9.13
2018-12-30T15:19:33.386Z,9.17
2018-12-30T15:20:33.418Z,9.15
2018-12-30T15:21:33.450Z,9.17
2018-12-30T15:22:33.482Z,9.15
2018-12-30T15:23:33.511Z,9.15
2018-12-30T15:24:33.542Z,9.26
2018-12-30T15:25:33.574Z,9.15
2018-12-30T15:26:33.609Z,9.22
2018-12-30T15:27:33.637Z,9.16
2018-12-30T15:28:33.670Z,9.27
2018-12-30T15:29:33.700Z,9.15
2018-12-30T15:30:33.729Z,9.15
2018-12-30T15:31:33.762Z,9.15
2018-12-30T15:32:33.794Z,9.13
2018-12-30T15:33:33.824Z,9.13
2018-12-30T15:34:33.858Z,9.15
2018-12-30T15:35:33.887Z,9.13
2018-12-30T15:36:33.917Z,9.22
2018-12-30T15:37:33.948Z,9.17
2018-12-30T15:38:33.979Z,9.26
2018-12-30T15:39:34.012Z,9.23
2018-12-30T15:40:34.044Z,9.22
2018-12-30T15:41:34.075Z,9.23
2018-12-30T15:42:34.106Z,9.30
2018-12-30T15:43:34.137Z,9.16
2018-12-30T15:44:34.171Z,9.15
2018-12-30T15:45:34.200Z,9.15
2018-12-30T15:46:34.232Z,9.16
2018-12-30T15:47:34.262Z,9.15
2018-12-30T15:48:34.294Z,9.19
2018-12-30T15:49:34.325Z,9.10
2018-12-30T15:50:34.356Z,9.16
2018-12-30T15:51:34.387Z,9.08
2018-12-30T15:52:34.419Z,9.08
2018-12-30T15:53:34.452Z,9.08
2018-12-30T15:54:34.481Z,9.01
2018-12-30T15:55:34.513Z,8.98
2018-12-30T15:56:34.544Z,9.00
2018-12-30T15:57:34.576Z,8.98
2018-12-30T15:58:34.607Z,8.94
2018-12-30T15:59:34.638Z,9.12
2018-12-30T16:00:34.669Z,8.98
2018-12-30T16:01:34.702Z,8.94
2018-12-30T16:02:34.732Z,9.00
2018-12-30T16:03:34.763Z,8.96
2018-12-30T16:04:34.795Z,8.98
2018-12-30T16:05:34.830Z,9.00
2018-12-30T16:06:34.858Z,8.93
2018-12-30T16:07:34.890Z,8.96
2018-12-30T16:08:34.920Z,8.93
2018-12-30T16:09:34.952Z,8.96
2018-12-30T16:10:34.982Z,8.97
2018-12-30T16:11:35.014Z,9.00
2018-12-30T16:12:35.045Z,8.93
2018-12-30T16:13:35.077Z,8.83
2018-12-30T16:14:35.193Z,8.96
2018-12-30T16:15:35.138Z,8.96
2018-12-30T16:16:35.169Z,8.86
2018-12-30T16:17:35.201Z,8.91
2018-12-30T16:18:35.233Z,8.89
2018-12-30T16:19:35.264Z,8.93
2018-12-30T16:20:35.294Z,8.86
2018-12-30T16:21:35.327Z,8.86
2018-12-30T16:22:35.357Z,8.91
2018-12-30T16:23:35.389Z,8.79
2018-12-30T16:24:35.419Z,8.89
2018-12-30T16:25:35.451Z,8.88
2018-12-30T16:26:35.483Z,8.82
2018-12-30T16:27:35.515Z,8.79
2018-12-30T16:28:35.546Z,8.80
2018-12-30T16:29:35.583Z,8.70
2018-12-30T16:30:35.605Z,8.68
2018-12-30T16:31:35.638Z,8.61
2018-12-30T16:32:35.670Z,8.70
2018-12-30T16:33:35.702Z,8.63
2018-12-30T16:34:35.732Z,8.57
2018-12-30T16:35:35.763Z,8.57
2018-12-30T16:36:35.794Z,8.57
2018-12-30T16:37:35.825Z,8.55
2018-12-30T16:38:35.859Z,8.57
2018-12-30T16:39:35.889Z,8.49
2018-12-30T16:40:35.920Z,8.50
2018-12-30T16:41:35.953Z,8.52
2018-12-30T16:42:35.984Z,8.55